Cranfield, Mississippi
Current Conditions -  °F | °C
As of 9:55 AM on Sunday 23 Nov 2014 (Local Time) from KHEZ Reporting Station
Overcast Overcast  
Wind Chill: 64°   Ceiling: 2400
Heat Index: 64°   Visibility: 10mi
Dew Point: 61°   Wind: 10mph
Humidity: 88%   Direction: 200°SSW
Pressure: 29.6"   Gusts: 22mph
Location:  31.4774°N, 91.0619°W
Report Text: KHEZ 231555Z AUTO 20009G19KT 10SM FEW016 BKN024 OVC044 18/16 A2960 RMK AO1
Loading
Personal Weather Stations






























Interactive Weather Map New forecast layout! Learn more

10-Day Weather Forecast

Advertisements
Track Severe Weather on mobile